sensor_id;sensor_type;location;lat;lon;timestamp;P1;durP1;ratioP1;P2;durP2;ratioP2
53391;SDS011;41667;51.922;8.850;2023-02-19T00:01:08;8.90;;;5.75;;
53391;SDS011;41667;51.922;8.850;2023-02-19T00:03:34;15.73;;;7.32;;
53391;SDS011;41667;51.922;8.850;2023-02-19T00:06:03;15.57;;;8.05;;
53391;SDS011;41667;51.922;8.850;2023-02-19T00:08:31;11.98;;;6.60;;
53391;SDS011;41667;51.922;8.850;2023-02-19T00:11:01;5.63;;;3.53;;
53391;SDS011;41667;51.922;8.850;2023-02-19T00:13:26;9.82;;;5.05;;
53391;SDS011;41667;51.922;8.850;2023-02-19T00:15:51;5.53;;;3.42;;
53391;SDS011;41667;51.922;8.850;2023-02-19T00:18:16;6.07;;;3.92;;
53391;SDS011;41667;51.922;8.850;2023-02-19T00:20:41;3.78;;;2.70;;
53391;SDS011;41667;51.922;8.850;2023-02-19T00:23:06;4.47;;;2.78;;
53391;SDS011;41667;51.922;8.850;2023-02-19T00:25:34;2.87;;;2.50;;
53391;SDS011;41667;51.922;8.850;2023-02-19T00:28:00;2.25;;;1.73;;
53391;SDS011;41667;51.922;8.850;2023-02-19T00:30:25;2.80;;;2.25;;
53391;SDS011;41667;51.922;8.850;2023-02-19T00:32:50;2.77;;;2.53;;
53391;SDS011;41667;51.922;8.850;2023-02-19T00:35:15;3.78;;;2.45;;
53391;SDS011;41667;51.922;8.850;2023-02-19T00:37:40;5.32;;;2.47;;
53391;SDS011;41667;51.922;8.850;2023-02-19T00:40:06;4.28;;;2.25;;
53391;SDS011;41667;51.922;8.850;2023-02-19T00:42:31;2.80;;;2.05;;
53391;SDS011;41667;51.922;8.850;2023-02-19T00:44:56;1.92;;;1.60;;
53391;SDS011;41667;51.922;8.850;2023-02-19T00:47:21;2.22;;;1.60;;
53391;SDS011;41667;51.922;8.850;2023-02-19T00:49:47;2.00;;;1.80;;
53391;SDS011;41667;51.922;8.850;2023-02-19T00:52:12;2.17;;;1.70;;
53391;SDS011;41667;51.922;8.850;2023-02-19T00:54:37;4.78;;;2.70;;
53391;SDS011;41667;51.922;8.850;2023-02-19T00:57:02;3.57;;;1.90;;
53391;SDS011;41667;51.922;8.850;2023-02-19T00:59:27;3.05;;;2.45;;
53391;SDS011;41667;51.922;8.850;2023-02-19T01:01:52;3.40;;;2.58;;
53391;SDS011;41667;51.922;8.850;2023-02-19T01:04:18;5.00;;;2.60;;
53391;SDS011;41667;51.922;8.850;2023-02-19T01:06:43;4.25;;;2.40;;
53391;SDS011;41667;51.922;8.850;2023-02-19T01:09:08;3.30;;;2.40;;
53391;SDS011;41667;51.922;8.850;2023-02-19T01:11:33;5.22;;;2.63;;
53391;SDS011;41667;51.922;8.850;2023-02-19T01:13:59;3.40;;;2.35;;
53391;SDS011;41667;51.922;8.850;2023-02-19T01:16:24;4.65;;;2.70;;
53391;SDS011;41667;51.922;8.850;2023-02-19T01:18:51;4.07;;;2.45;;
53391;SDS011;41667;51.922;8.850;2023-02-19T01:21:18;3.17;;;2.70;;
53391;SDS011;41667;51.922;8.850;2023-02-19T01:23:43;4.18;;;2.55;;
53391;SDS011;41667;51.922;8.850;2023-02-19T01:26:10;2.73;;;2.07;;
53391;SDS011;41667;51.922;8.850;2023-02-19T01:28:36;5.40;;;2.95;;
53391;SDS011;41667;51.922;8.850;2023-02-19T01:31:02;3.43;;;2.40;;
53391;SDS011;41667;51.922;8.850;2023-02-19T01:33:27;3.75;;;2.92;;
53391;SDS011;41667;51.922;8.850;2023-02-19T01:35:53;4.22;;;2.97;;
53391;SDS011;41667;51.922;8.850;2023-02-19T01:38:18;4.05;;;2.50;;
53391;SDS011;41667;51.922;8.850;2023-02-19T01:40:43;8.60;;;4.47;;
53391;SDS011;41667;51.922;8.850;2023-02-19T01:43:11;9.60;;;5.33;;
53391;SDS011;41667;51.922;8.850;2023-02-19T01:45:41;15.18;;;7.68;;
53391;SDS011;41667;51.922;8.850;2023-02-19T01:48:14;14.80;;;7.47;;
53391;SDS011;41667;51.922;8.850;2023-02-19T01:50:46;17.63;;;8.38;;
53391;SDS011;41667;51.922;8.850;2023-02-19T01:53:13;16.67;;;9.25;;
53391;SDS011;41667;51.922;8.850;2023-02-19T01:55:40;18.23;;;9.65;;
53391;SDS011;41667;51.922;8.850;2023-02-19T01:58:06;18.77;;;9.35;;
53391;SDS011;41667;51.922;8.850;2023-02-19T02:00:32;21.17;;;9.07;;
53391;SDS011;41667;51.922;8.850;2023-02-19T02:02:57;22.33;;;10.18;;
53391;SDS011;41667;51.922;8.850;2023-02-19T02:05:27;22.23;;;9.98;;
53391;SDS011;41667;51.922;8.850;2023-02-19T02:07:55;22.63;;;10.90;;
53391;SDS011;41667;51.922;8.850;2023-02-19T02:10:39;16.63;;;9.18;;
53391;SDS011;41667;51.922;8.850;2023-02-19T02:13:04;21.45;;;11.38;;
53391;SDS011;41667;51.922;8.850;2023-02-19T02:15:34;21.95;;;10.52;;
53391;SDS011;41667;51.922;8.850;2023-02-19T02:18:22;19.92;;;10.15;;
53391;SDS011;41667;51.922;8.850;2023-02-19T02:20:56;27.30;;;11.70;;
53391;SDS011;41667;51.922;8.850;2023-02-19T02:23:45;20.25;;;9.95;;
53391;SDS011;41667;51.922;8.850;2023-02-19T02:29:01;20.10;;;9.60;;
53391;SDS011;41667;51.922;8.850;2023-02-19T02:31:34;20.83;;;9.97;;
53391;SDS011;41667;51.922;8.850;2023-02-19T02:34:04;18.67;;;9.70;;
53391;SDS011;41667;51.922;8.850;2023-02-19T02:36:41;15.32;;;9.00;;
53391;SDS011;41667;51.922;8.850;2023-02-19T02:39:08;17.92;;;9.43;;
53391;SDS011;41667;51.922;8.850;2023-02-19T02:41:39;14.98;;;8.82;;
53391;SDS011;41667;51.922;8.850;2023-02-19T02:44:04;17.55;;;7.97;;
53391;SDS011;41667;51.922;8.850;2023-02-19T02:46:32;13.48;;;8.18;;
53391;SDS011;41667;51.922;8.850;2023-02-19T02:49:00;18.13;;;8.38;;
53391;SDS011;41667;51.922;8.850;2023-02-19T02:51:34;17.38;;;8.30;;
53391;SDS011;41667;51.922;8.850;2023-02-19T02:54:08;14.90;;;8.00;;
53391;SDS011;41667;51.922;8.850;2023-02-19T02:56:53;15.85;;;8.15;;
53391;SDS011;41667;51.922;8.850;2023-02-19T02:59:22;16.30;;;8.57;;
53391;SDS011;41667;51.922;8.850;2023-02-19T03:01:48;20.52;;;8.63;;
53391;SDS011;41667;51.922;8.850;2023-02-19T03:04:36;12.82;;;8.00;;
53391;SDS011;41667;51.922;8.850;2023-02-19T03:07:23;19.50;;;8.80;;
53391;SDS011;41667;51.922;8.850;2023-02-19T03:09:50;13.85;;;7.47;;
53391;SDS011;41667;51.922;8.850;2023-02-19T03:12:15;16.77;;;8.43;;
53391;SDS011;41667;51.922;8.850;2023-02-19T03:15:01;17.48;;;9.23;;
53391;SDS011;41667;51.922;8.850;2023-02-19T03:17:48;18.10;;;9.65;;
53391;SDS011;41667;51.922;8.850;2023-02-19T03:20:51;15.65;;;9.63;;
53391;SDS011;41667;51.922;8.850;2023-02-19T03:23:16;15.98;;;8.32;;
53391;SDS011;41667;51.922;8.850;2023-02-19T03:25:43;21.90;;;9.75;;
53391;SDS011;41667;51.922;8.850;2023-02-19T03:28:27;15.27;;;9.35;;
53391;SDS011;41667;51.922;8.850;2023-02-19T03:31:15;21.58;;;9.70;;
53391;SDS011;41667;51.922;8.850;2023-02-19T03:33:42;14.65;;;8.20;;
53391;SDS011;41667;51.922;8.850;2023-02-19T03:36:09;21.98;;;10.88;;
53391;SDS011;41667;51.922;8.850;2023-02-19T03:38:38;19.63;;;9.98;;
53391;SDS011;41667;51.922;8.850;2023-02-19T03:41:06;20.77;;;9.60;;
53391;SDS011;41667;51.922;8.850;2023-02-19T03:43:37;22.60;;;9.98;;
53391;SDS011;41667;51.922;8.850;2023-02-19T03:46:11;18.67;;;8.95;;
53391;SDS011;41667;51.922;8.850;2023-02-19T03:48:47;20.27;;;9.60;;
53391;SDS011;41667;51.922;8.850;2023-02-19T03:51:36;22.13;;;9.73;;
53391;SDS011;41667;51.922;8.850;2023-02-19T03:57:12;16.17;;;9.98;;
53391;SDS011;41667;51.922;8.850;2023-02-19T03:59:42;19.02;;;9.20;;
53391;SDS011;41667;51.922;8.850;2023-02-19T04:02:11;16.42;;;9.77;;
53391;SDS011;41667;51.922;8.850;2023-02-19T04:04:38;18.08;;;8.20;;
53391;SDS011;41667;51.922;8.850;2023-02-19T04:07:05;24.00;;;8.98;;
53391;SDS011;41667;51.922;8.850;2023-02-19T04:09:35;15.25;;;8.02;;
53391;SDS011;41667;51.922;8.850;2023-02-19T04:12:01;18.17;;;9.70;;
53391;SDS011;41667;51.922;8.850;2023-02-19T04:14:27;18.73;;;9.73;;
53391;SDS011;41667;51.922;8.850;2023-02-19T04:16:57;21.67;;;9.38;;
53391;SDS011;41667;51.922;8.850;2023-02-19T04:19:24;16.27;;;9.60;;
53391;SDS011;41667;51.922;8.850;2023-02-19T04:21:50;22.48;;;9.38;;
53391;SDS011;41667;51.922;8.850;2023-02-19T04:24:24;20.38;;;9.02;;
53391;SDS011;41667;51.922;8.850;2023-02-19T04:26:51;18.23;;;10.00;;
53391;SDS011;41667;51.922;8.850;2023-02-19T04:29:16;12.30;;;7.22;;
53391;SDS011;41667;51.922;8.850;2023-02-19T04:31:41;18.40;;;9.85;;
53391;SDS011;41667;51.922;8.850;2023-02-19T04:34:07;18.33;;;9.53;;
53391;SDS011;41667;51.922;8.850;2023-02-19T04:36:32;21.00;;;8.77;;
53391;SDS011;41667;51.922;8.850;2023-02-19T04:38:57;17.20;;;9.50;;
53391;SDS011;41667;51.922;8.850;2023-02-19T04:41:23;14.73;;;8.48;;
53391;SDS011;41667;51.922;8.850;2023-02-19T04:43:48;12.03;;;7.90;;
53391;SDS011;41667;51.922;8.850;2023-02-19T04:46:13;15.70;;;7.63;;
53391;SDS011;41667;51.922;8.850;2023-02-19T04:48:38;14.00;;;8.50;;
53391;SDS011;41667;51.922;8.850;2023-02-19T04:51:04;14.20;;;8.07;;
53391;SDS011;41667;51.922;8.850;2023-02-19T04:53:29;10.40;;;6.20;;
53391;SDS011;41667;51.922;8.850;2023-02-19T04:55:54;10.00;;;6.57;;
53391;SDS011;41667;51.922;8.850;2023-02-19T04:58:19;11.07;;;7.03;;
53391;SDS011;41667;51.922;8.850;2023-02-19T05:00:45;11.98;;;7.47;;
53391;SDS011;41667;51.922;8.850;2023-02-19T05:03:10;16.60;;;8.07;;
53391;SDS011;41667;51.922;8.850;2023-02-19T05:05:35;12.02;;;6.80;;
53391;SDS011;41667;51.922;8.850;2023-02-19T05:08:00;14.95;;;7.20;;
53391;SDS011;41667;51.922;8.850;2023-02-19T05:10:25;11.20;;;6.60;;
53391;SDS011;41667;51.922;8.850;2023-02-19T05:12:50;12.07;;;6.63;;
53391;SDS011;41667;51.922;8.850;2023-02-19T05:15:16;19.38;;;8.40;;
53391;SDS011;41667;51.922;8.850;2023-02-19T05:17:41;10.27;;;5.80;;
53391;SDS011;41667;51.922;8.850;2023-02-19T05:20:06;15.05;;;7.40;;
53391;SDS011;41667;51.922;8.850;2023-02-19T05:22:32;15.30;;;6.55;;
53391;SDS011;41667;51.922;8.850;2023-02-19T05:24:57;9.40;;;5.95;;
53391;SDS011;41667;51.922;8.850;2023-02-19T05:27:22;9.20;;;6.88;;
53391;SDS011;41667;51.922;8.850;2023-02-19T05:29:47;11.23;;;5.68;;
53391;SDS011;41667;51.922;8.850;2023-02-19T05:32:12;12.03;;;5.57;;
53391;SDS011;41667;51.922;8.850;2023-02-19T05:34:37;8.50;;;5.45;;
53391;SDS011;41667;51.922;8.850;2023-02-19T05:37:03;8.05;;;4.75;;
53391;SDS011;41667;51.922;8.850;2023-02-19T05:39:28;10.00;;;4.40;;
53391;SDS011;41667;51.922;8.850;2023-02-19T05:41:53;7.88;;;3.75;;
53391;SDS011;41667;51.922;8.850;2023-02-19T05:44:18;11.00;;;4.47;;
53391;SDS011;41667;51.922;8.850;2023-02-19T05:46:43;10.05;;;5.53;;
53391;SDS011;41667;51.922;8.850;2023-02-19T05:49:08;11.00;;;5.43;;
53391;SDS011;41667;51.922;8.850;2023-02-19T05:51:33;8.32;;;5.18;;
53391;SDS011;41667;51.922;8.850;2023-02-19T05:53:58;9.53;;;5.30;;
53391;SDS011;41667;51.922;8.850;2023-02-19T05:58:49;11.50;;;5.95;;
53391;SDS011;41667;51.922;8.850;2023-02-19T06:01:15;6.43;;;4.70;;
53391;SDS011;41667;51.922;8.850;2023-02-19T06:03:40;6.75;;;3.95;;
53391;SDS011;41667;51.922;8.850;2023-02-19T06:06:06;7.63;;;4.68;;
53391;SDS011;41667;51.922;8.850;2023-02-19T06:08:31;8.88;;;4.63;;
53391;SDS011;41667;51.922;8.850;2023-02-19T06:10:56;9.00;;;4.97;;
53391;SDS011;41667;51.922;8.850;2023-02-19T06:13:21;8.52;;;4.38;;
53391;SDS011;41667;51.922;8.850;2023-02-19T06:15:47;5.28;;;3.90;;
53391;SDS011;41667;51.922;8.850;2023-02-19T06:18:12;6.28;;;3.60;;
53391;SDS011;41667;51.922;8.850;2023-02-19T06:20:37;7.60;;;3.73;;
53391;SDS011;41667;51.922;8.850;2023-02-19T06:23:02;9.23;;;3.73;;
53391;SDS011;41667;51.922;8.850;2023-02-19T06:25:27;5.50;;;3.83;;
53391;SDS011;41667;51.922;8.850;2023-02-19T06:27:52;4.60;;;3.53;;
53391;SDS011;41667;51.922;8.850;2023-02-19T06:30:17;9.05;;;4.45;;
53391;SDS011;41667;51.922;8.850;2023-02-19T06:32:43;8.55;;;4.55;;
53391;SDS011;41667;51.922;8.850;2023-02-19T06:35:08;5.40;;;3.70;;
53391;SDS011;41667;51.922;8.850;2023-02-19T06:37:33;4.23;;;3.70;;
53391;SDS011;41667;51.922;8.850;2023-02-19T06:39:58;5.97;;;4.30;;
53391;SDS011;41667;51.922;8.850;2023-02-19T06:42:23;4.00;;;3.17;;
53391;SDS011;41667;51.922;8.850;2023-02-19T06:44:48;2.03;;;1.85;;
53391;SDS011;41667;51.922;8.850;2023-02-19T06:47:13;1.50;;;1.30;;
53391;SDS011;41667;51.922;8.850;2023-02-19T06:49:39;1.15;;;1.00;;
53391;SDS011;41667;51.922;8.850;2023-02-19T06:52:04;1.80;;;1.70;;
53391;SDS011;41667;51.922;8.850;2023-02-19T06:54:29;3.78;;;1.65;;
53391;SDS011;41667;51.922;8.850;2023-02-19T06:56:55;4.13;;;1.33;;
53391;SDS011;41667;51.922;8.850;2023-02-19T06:59:22;1.55;;;1.45;;
53391;SDS011;41667;51.922;8.850;2023-02-19T07:01:48;1.80;;;1.70;;
53391;SDS011;41667;51.922;8.850;2023-02-19T07:04:13;1.17;;;1.10;;
53391;SDS011;41667;51.922;8.850;2023-02-19T07:06:38;1.00;;;0.90;;
53391;SDS011;41667;51.922;8.850;2023-02-19T07:09:04;0.70;;;0.70;;
53391;SDS011;41667;51.922;8.850;2023-02-19T07:11:30;0.90;;;0.90;;
53391;SDS011;41667;51.922;8.850;2023-02-19T07:13:56;1.02;;;1.00;;
53391;SDS011;41667;51.922;8.850;2023-02-19T07:16:22;1.00;;;1.00;;
53391;SDS011;41667;51.922;8.850;2023-02-19T07:18:47;0.80;;;0.80;;
53391;SDS011;41667;51.922;8.850;2023-02-19T07:21:13;1.63;;;0.90;;
53391;SDS011;41667;51.922;8.850;2023-02-19T07:23:39;1.20;;;0.90;;
53391;SDS011;41667;51.922;8.850;2023-02-19T07:26:07;0.85;;;0.85;;
53391;SDS011;41667;51.922;8.850;2023-02-19T07:28:32;0.82;;;0.82;;
53391;SDS011;41667;51.922;8.850;2023-02-19T07:31:01;2.23;;;1.03;;
53391;SDS011;41667;51.922;8.850;2023-02-19T07:33:26;1.00;;;1.00;;
53391;SDS011;41667;51.922;8.850;2023-02-19T07:35:51;1.38;;;1.27;;
53391;SDS011;41667;51.922;8.850;2023-02-19T07:38:17;1.15;;;1.05;;
53391;SDS011;41667;51.922;8.850;2023-02-19T07:40:52;2.20;;;1.27;;
53391;SDS011;41667;51.922;8.850;2023-02-19T07:43:18;2.38;;;2.17;;
53391;SDS011;41667;51.922;8.850;2023-02-19T07:45:43;2.38;;;2.03;;
53391;SDS011;41667;51.922;8.850;2023-02-19T07:48:09;1.90;;;1.70;;
53391;SDS011;41667;51.922;8.850;2023-02-19T07:50:34;2.43;;;1.70;;
53391;SDS011;41667;51.922;8.850;2023-02-19T07:52:59;2.13;;;1.65;;
53391;SDS011;41667;51.922;8.850;2023-02-19T07:55:24;2.47;;;1.93;;
53391;SDS011;41667;51.922;8.850;2023-02-19T07:57:49;3.05;;;1.73;;
53391;SDS011;41667;51.922;8.850;2023-02-19T08:00:15;1.50;;;1.40;;
53391;SDS011;41667;51.922;8.850;2023-02-19T08:02:40;1.67;;;1.55;;
53391;SDS011;41667;51.922;8.850;2023-02-19T08:05:23;1.20;;;1.10;;
53391;SDS011;41667;51.922;8.850;2023-02-19T08:07:48;2.15;;;1.73;;
53391;SDS011;41667;51.922;8.850;2023-02-19T08:10:14;1.75;;;1.63;;
53391;SDS011;41667;51.922;8.850;2023-02-19T08:12:58;1.85;;;1.45;;
53391;SDS011;41667;51.922;8.850;2023-02-19T08:15:42;2.65;;;1.80;;
53391;SDS011;41667;51.922;8.850;2023-02-19T08:18:07;1.80;;;1.70;;
53391;SDS011;41667;51.922;8.850;2023-02-19T08:20:33;1.83;;;1.73;;
53391;SDS011;41667;51.922;8.850;2023-02-19T08:22:58;1.38;;;1.27;;
53391;SDS011;41667;51.922;8.850;2023-02-19T08:25:23;1.05;;;1.00;;
53391;SDS011;41667;51.922;8.850;2023-02-19T08:27:49;1.10;;;1.10;;
53391;SDS011;41667;51.922;8.850;2023-02-19T08:30:14;1.27;;;1.27;;
53391;SDS011;41667;51.922;8.850;2023-02-19T08:32:40;1.70;;;1.07;;
53391;SDS011;41667;51.922;8.850;2023-02-19T08:35:05;1.48;;;1.38;;
53391;SDS011;41667;51.922;8.850;2023-02-19T08:37:30;1.20;;;1.20;;
53391;SDS011;41667;51.922;8.850;2023-02-19T08:39:55;0.98;;;0.98;;
53391;SDS011;41667;51.922;8.850;2023-02-19T08:42:20;1.73;;;1.53;;
53391;SDS011;41667;51.922;8.850;2023-02-19T08:44:45;1.10;;;1.10;;
53391;SDS011;41667;51.922;8.850;2023-02-19T08:47:11;1.02;;;1.02;;
53391;SDS011;41667;51.922;8.850;2023-02-19T08:49:36;1.20;;;1.10;;
53391;SDS011;41667;51.922;8.850;2023-02-19T08:52:01;0.98;;;0.98;;
53391;SDS011;41667;51.922;8.850;2023-02-19T08:54:26;1.35;;;1.25;;
53391;SDS011;41667;51.922;8.850;2023-02-19T08:56:51;1.30;;;1.30;;
53391;SDS011;41667;51.922;8.850;2023-02-19T08:59:16;1.33;;;1.23;;
53391;SDS011;41667;51.922;8.850;2023-02-19T09:01:44;1.73;;;1.63;;
53391;SDS011;41667;51.922;8.850;2023-02-19T09:04:10;1.60;;;1.50;;
53391;SDS011;41667;51.922;8.850;2023-02-19T09:06:35;1.10;;;1.10;;
53391;SDS011;41667;51.922;8.850;2023-02-19T09:09:01;1.50;;;1.40;;
53391;SDS011;41667;51.922;8.850;2023-02-19T09:11:26;1.63;;;1.48;;
53391;SDS011;41667;51.922;8.850;2023-02-19T09:13:51;1.25;;;1.15;;
53391;SDS011;41667;51.922;8.850;2023-02-19T09:16:19;1.60;;;1.50;;
53391;SDS011;41667;51.922;8.850;2023-02-19T09:18:44;1.70;;;1.60;;
53391;SDS011;41667;51.922;8.850;2023-02-19T09:21:09;1.92;;;1.65;;
53391;SDS011;41667;51.922;8.850;2023-02-19T09:23:35;3.07;;;1.30;;
53391;SDS011;41667;51.922;8.850;2023-02-19T09:26:00;2.53;;;1.60;;
53391;SDS011;41667;51.922;8.850;2023-02-19T09:28:27;1.50;;;1.30;;
53391;SDS011;41667;51.922;8.850;2023-02-19T09:30:52;1.50;;;1.40;;
53391;SDS011;41667;51.922;8.850;2023-02-19T09:33:17;1.50;;;1.40;;
53391;SDS011;41667;51.922;8.850;2023-02-19T09:35:42;1.63;;;1.23;;
53391;SDS011;41667;51.922;8.850;2023-02-19T09:38:07;2.95;;;2.58;;
53391;SDS011;41667;51.922;8.850;2023-02-19T09:40:35;1.50;;;1.40;;
53391;SDS011;41667;51.922;8.850;2023-02-19T09:43:00;1.20;;;1.20;;
53391;SDS011;41667;51.922;8.850;2023-02-19T09:45:26;1.23;;;1.17;;
53391;SDS011;41667;51.922;8.850;2023-02-19T09:47:52;1.80;;;1.27;;
53391;SDS011;41667;51.922;8.850;2023-02-19T09:50:20;1.50;;;1.40;;
53391;SDS011;41667;51.922;8.850;2023-02-19T09:52:50;1.35;;;1.25;;
53391;SDS011;41667;51.922;8.850;2023-02-19T09:55:33;1.45;;;1.35;;
53391;SDS011;41667;51.922;8.850;2023-02-19T09:58:01;3.33;;;1.58;;
53391;SDS011;41667;51.922;8.850;2023-02-19T10:00:28;1.67;;;1.40;;
53391;SDS011;41667;51.922;8.850;2023-02-19T10:03:05;1.45;;;1.35;;
53391;SDS011;41667;51.922;8.850;2023-02-19T10:05:31;1.17;;;1.10;;
53391;SDS011;41667;51.922;8.850;2023-02-19T10:07:57;3.10;;;1.00;;
53391;SDS011;41667;51.922;8.850;2023-02-19T10:10:24;1.27;;;1.17;;
53391;SDS011;41667;51.922;8.850;2023-02-19T10:12:51;0.93;;;0.93;;
53391;SDS011;41667;51.922;8.850;2023-02-19T10:15:21;1.15;;;1.15;;
53391;SDS011;41667;51.922;8.850;2023-02-19T10:17:49;1.60;;;1.35;;
53391;SDS011;41667;51.922;8.850;2023-02-19T10:20:14;1.65;;;1.55;;
53391;SDS011;41667;51.922;8.850;2023-02-19T10:22:41;1.85;;;1.75;;
53391;SDS011;41667;51.922;8.850;2023-02-19T10:25:08;0.98;;;0.98;;
53391;SDS011;41667;51.922;8.850;2023-02-19T10:27:36;1.30;;;1.20;;
53391;SDS011;41667;51.922;8.850;2023-02-19T10:30:01;2.00;;;1.80;;
53391;SDS011;41667;51.922;8.850;2023-02-19T10:32:26;1.33;;;1.23;;
53391;SDS011;41667;51.922;8.850;2023-02-19T10:35:06;1.23;;;1.13;;
53391;SDS011;41667;51.922;8.850;2023-02-19T10:37:31;1.25;;;1.25;;
53391;SDS011;41667;51.922;8.850;2023-02-19T10:39:56;3.13;;;1.20;;
53391;SDS011;41667;51.922;8.850;2023-02-19T10:42:22;1.55;;;1.30;;
53391;SDS011;41667;51.922;8.850;2023-02-19T10:44:54;1.55;;;1.45;;
53391;SDS011;41667;51.922;8.850;2023-02-19T10:47:22;0.98;;;0.98;;
53391;SDS011;41667;51.922;8.850;2023-02-19T10:49:48;2.05;;;1.45;;
53391;SDS011;41667;51.922;8.850;2023-02-19T10:52:22;1.60;;;1.50;;
53391;SDS011;41667;51.922;8.850;2023-02-19T10:54:50;1.88;;;1.73;;
53391;SDS011;41667;51.922;8.850;2023-02-19T10:59:48;1.65;;;1.55;;
53391;SDS011;41667;51.922;8.850;2023-02-19T11:02:15;2.25;;;1.13;;
53391;SDS011;41667;51.922;8.850;2023-02-19T11:04:41;1.67;;;1.40;;
53391;SDS011;41667;51.922;8.850;2023-02-19T11:07:07;1.80;;;1.70;;
53391;SDS011;41667;51.922;8.850;2023-02-19T11:11:57;1.33;;;1.23;;
53391;SDS011;41667;51.922;8.850;2023-02-19T11:14:23;1.63;;;1.45;;
53391;SDS011;41667;51.922;8.850;2023-02-19T11:16:50;2.10;;;1.73;;
53391;SDS011;41667;51.922;8.850;2023-02-19T11:19:26;2.00;;;1.90;;
53391;SDS011;41667;51.922;8.850;2023-02-19T11:21:52;1.92;;;1.83;;
53391;SDS011;41667;51.922;8.850;2023-02-19T11:24:20;2.38;;;1.98;;
53391;SDS011;41667;51.922;8.850;2023-02-19T11:26:47;4.13;;;2.83;;
53391;SDS011;41667;51.922;8.850;2023-02-19T11:29:16;2.35;;;2.10;;
53391;SDS011;41667;51.922;8.850;2023-02-19T11:31:43;1.98;;;1.63;;
53391;SDS011;41667;51.922;8.850;2023-02-19T11:36:45;1.38;;;1.27;;
53391;SDS011;41667;51.922;8.850;2023-02-19T11:44:31;2.08;;;1.60;;
53391;SDS011;41667;51.922;8.850;2023-02-19T11:47:19;1.38;;;1.27;;
53391;SDS011;41667;51.922;8.850;2023-02-19T11:49:47;1.35;;;1.35;;
53391;SDS011;41667;51.922;8.850;2023-02-19T11:52:22;1.50;;;1.10;;
53391;SDS011;41667;51.922;8.850;2023-02-19T11:54:54;1.25;;;1.20;;
53391;SDS011;41667;51.922;8.850;2023-02-19T11:57:34;3.85;;;1.30;;
53391;SDS011;41667;51.922;8.850;2023-02-19T12:00:19;1.55;;;1.25;;
53391;SDS011;41667;51.922;8.850;2023-02-19T12:02:53;1.42;;;1.33;;
53391;SDS011;41667;51.922;8.850;2023-02-19T12:05:42;2.15;;;1.50;;
53391;SDS011;41667;51.922;8.850;2023-02-19T12:10:44;1.63;;;1.52;;
53391;SDS011;41667;51.922;8.850;2023-02-19T12:13:26;2.00;;;1.73;;
53391;SDS011;41667;51.922;8.850;2023-02-19T12:16:07;1.20;;;1.10;;
53391;SDS011;41667;51.922;8.850;2023-02-19T12:28:52;1.50;;;1.23;;
53391;SDS011;41667;51.922;8.850;2023-02-19T12:31:26;0.82;;;0.82;;
53391;SDS011;41667;51.922;8.850;2023-02-19T12:34:04;1.25;;;1.25;;
53391;SDS011;41667;51.922;8.850;2023-02-19T12:39:10;1.30;;;1.27;;
53391;SDS011;41667;51.922;8.850;2023-02-19T12:44:14;1.58;;;1.48;;
53391;SDS011;41667;51.922;8.850;2023-02-19T12:46:42;1.10;;;1.10;;
53391;SDS011;41667;51.922;8.850;2023-02-19T12:49:13;2.60;;;1.23;;
53391;SDS011;41667;51.922;8.850;2023-02-19T12:51:47;1.02;;;0.90;;
53391;SDS011;41667;51.922;8.850;2023-02-19T12:54:15;0.95;;;0.95;;
53391;SDS011;41667;51.922;8.850;2023-02-19T12:56:46;2.95;;;0.80;;
53391;SDS011;41667;51.922;8.850;2023-02-19T12:59:28;1.75;;;1.00;;
53391;SDS011;41667;51.922;8.850;2023-02-19T13:01:57;0.95;;;0.90;;
53391;SDS011;41667;51.922;8.850;2023-02-19T13:04:29;1.02;;;1.02;;
53391;SDS011;41667;51.922;8.850;2023-02-19T13:07:00;2.70;;;1.55;;
53391;SDS011;41667;51.922;8.850;2023-02-19T13:09:36;1.95;;;1.27;;
53391;SDS011;41667;51.922;8.850;2023-02-19T13:12:05;1.13;;;1.02;;
53391;SDS011;41667;51.922;8.850;2023-02-19T13:14:33;1.15;;;1.10;;
53391;SDS011;41667;51.922;8.850;2023-02-19T13:17:03;2.05;;;1.30;;
53391;SDS011;41667;51.922;8.850;2023-02-19T13:19:30;3.28;;;1.23;;
53391;SDS011;41667;51.922;8.850;2023-02-19T13:21:59;0.80;;;0.80;;
53391;SDS011;41667;51.922;8.850;2023-02-19T13:24:46;3.00;;;1.60;;
53391;SDS011;41667;51.922;8.850;2023-02-19T13:27:31;6.00;;;1.65;;
53391;SDS011;41667;51.922;8.850;2023-02-19T13:37:45;1.77;;;0.95;;
53391;SDS011;41667;51.922;8.850;2023-02-19T13:40:18;3.50;;;2.47;;
53391;SDS011;41667;51.922;8.850;2023-02-19T13:42:51;2.92;;;2.17;;
53391;SDS011;41667;51.922;8.850;2023-02-19T13:45:21;1.40;;;1.30;;
53391;SDS011;41667;51.922;8.850;2023-02-19T13:47:48;1.63;;;1.52;;
53391;SDS011;41667;51.922;8.850;2023-02-19T13:50:23;2.80;;;1.83;;
53391;SDS011;41667;51.922;8.850;2023-02-19T13:52:49;3.88;;;1.30;;
53391;SDS011;41667;51.922;8.850;2023-02-19T13:55:42;1.73;;;1.40;;
53391;SDS011;41667;51.922;8.850;2023-02-19T14:00:54;1.25;;;1.25;;
53391;SDS011;41667;51.922;8.850;2023-02-19T14:06:04;2.78;;;1.33;;
53391;SDS011;41667;51.922;8.850;2023-02-19T14:11:14;1.42;;;1.10;;
53391;SDS011;41667;51.922;8.850;2023-02-19T14:18:51;1.63;;;1.50;;
53391;SDS011;41667;51.922;8.850;2023-02-19T14:21:23;1.70;;;1.42;;
53391;SDS011;41667;51.922;8.850;2023-02-19T14:23:52;1.60;;;1.50;;
53391;SDS011;41667;51.922;8.850;2023-02-19T14:26:19;1.50;;;1.40;;
53391;SDS011;41667;51.922;8.850;2023-02-19T14:28:45;1.52;;;1.42;;
53391;SDS011;41667;51.922;8.850;2023-02-19T14:33:59;1.52;;;1.42;;
53391;SDS011;41667;51.922;8.850;2023-02-19T14:36:36;1.50;;;1.40;;
53391;SDS011;41667;51.922;8.850;2023-02-19T14:39:05;1.50;;;1.40;;
53391;SDS011;41667;51.922;8.850;2023-02-19T14:41:36;2.42;;;1.98;;
53391;SDS011;41667;51.922;8.850;2023-02-19T14:44:02;4.15;;;2.53;;
53391;SDS011;41667;51.922;8.850;2023-02-19T14:46:30;2.63;;;1.83;;
53391;SDS011;41667;51.922;8.850;2023-02-19T14:48:57;1.63;;;1.52;;
53391;SDS011;41667;51.922;8.850;2023-02-19T14:51:32;1.45;;;1.35;;
53391;SDS011;41667;51.922;8.850;2023-02-19T14:53:59;2.08;;;1.70;;
53391;SDS011;41667;51.922;8.850;2023-02-19T14:56:27;2.05;;;1.85;;
53391;SDS011;41667;51.922;8.850;2023-02-19T15:01:32;2.97;;;1.40;;
53391;SDS011;41667;51.922;8.850;2023-02-19T15:03:57;1.88;;;1.63;;
53391;SDS011;41667;51.922;8.850;2023-02-19T15:06:22;2.38;;;2.17;;
53391;SDS011;41667;51.922;8.850;2023-02-19T15:08:52;4.07;;;1.77;;
53391;SDS011;41667;51.922;8.850;2023-02-19T15:11:19;1.55;;;1.45;;
53391;SDS011;41667;51.922;8.850;2023-02-19T15:13:47;2.22;;;1.88;;
53391;SDS011;41667;51.922;8.850;2023-02-19T15:16:17;1.88;;;1.70;;
53391;SDS011;41667;51.922;8.850;2023-02-19T15:18:43;3.40;;;2.20;;
53391;SDS011;41667;51.922;8.850;2023-02-19T15:21:11;1.88;;;1.77;;
53391;SDS011;41667;51.922;8.850;2023-02-19T15:23:41;2.28;;;1.50;;
53391;SDS011;41667;51.922;8.850;2023-02-19T15:26:15;2.92;;;2.05;;
53391;SDS011;41667;51.922;8.850;2023-02-19T15:28:41;1.75;;;1.38;;
53391;SDS011;41667;51.922;8.850;2023-02-19T15:31:10;2.58;;;2.05;;
53391;SDS011;41667;51.922;8.850;2023-02-19T15:33:36;1.83;;;1.60;;
53391;SDS011;41667;51.922;8.850;2023-02-19T15:36:03;1.90;;;1.80;;
53391;SDS011;41667;51.922;8.850;2023-02-19T15:38:29;2.15;;;1.90;;
53391;SDS011;41667;51.922;8.850;2023-02-19T15:40:54;2.05;;;1.80;;
53391;SDS011;41667;51.922;8.850;2023-02-19T15:46:20;2.13;;;1.85;;
53391;SDS011;41667;51.922;8.850;2023-02-19T15:51:32;2.25;;;1.55;;
53391;SDS011;41667;51.922;8.850;2023-02-19T15:53:59;3.53;;;1.98;;
53391;SDS011;41667;51.922;8.850;2023-02-19T15:56:31;1.80;;;1.70;;
53391;SDS011;41667;51.922;8.850;2023-02-19T15:59:01;1.88;;;1.77;;
53391;SDS011;41667;51.922;8.850;2023-02-19T16:01:29;2.30;;;1.52;;